createdAt,value
2022-12-09T00:00:08.148Z,7.29
2022-12-09T00:02:35.523Z,7.30
2022-12-09T00:05:02.497Z,7.28
2022-12-09T00:07:29.530Z,7.28
2022-12-09T00:09:56.200Z,7.26
2022-12-09T00:12:23.253Z,7.24
2022-12-09T00:14:49.842Z,7.21
2022-12-09T00:17:16.801Z,7.15
2022-12-09T00:19:43.554Z,7.13
2022-12-09T00:22:10.205Z,7.14
2022-12-09T00:24:36.885Z,7.12
2022-12-09T00:27:03.802Z,7.08
2022-12-09T00:29:30.691Z,7.07
2022-12-09T00:31:57.584Z,7.03
2022-12-09T00:34:24.338Z,7.06
2022-12-09T00:36:51.037Z,7.10
2022-12-09T00:39:17.957Z,7.09
2022-12-09T00:41:44.839Z,7.07
2022-12-09T00:44:12.300Z,7.02
2022-12-09T00:46:39.159Z,7.01
2022-12-09T00:49:06.457Z,7.04
2022-12-09T00:51:33.543Z,7.09
2022-12-09T00:54:01.390Z,7.03
2022-12-09T00:56:29.871Z,7.00
2022-12-09T00:58:58.753Z,7.02
2022-12-09T01:01:26.829Z,7.03
2022-12-09T01:03:54.316Z,7.08
2022-12-09T01:06:23.915Z,7.08
2022-12-09T01:08:51.478Z,7.13
2022-12-09T01:11:21.573Z,7.12
2022-12-09T01:13:50.344Z,7.07
2022-12-09T01:16:20.522Z,7.06
2022-12-09T01:18:49.280Z,7.03
2022-12-09T01:21:16.245Z,6.99
2022-12-09T01:23:43.181Z,6.97
2022-12-09T01:26:10.585Z,6.85
2022-12-09T01:28:39.626Z,6.77
2022-12-09T01:31:15.534Z,6.65
2022-12-09T01:33:43.567Z,6.58
2022-12-09T01:36:14.871Z,6.54
2022-12-09T01:38:41.939Z,6.49
2022-12-09T01:41:08.789Z,6.45
2022-12-09T01:43:35.738Z,6.40
2022-12-09T01:46:02.754Z,6.45
2022-12-09T01:48:33.764Z,6.42
2022-12-09T01:51:20.016Z,6.42
2022-12-09T01:53:50.765Z,6.37
2022-12-09T01:56:28.947Z,6.22
2022-12-09T01:59:02.425Z,6.20
2022-12-09T02:01:29.505Z,6.20
2022-12-09T02:03:56.881Z,6.19
2022-12-09T02:06:23.889Z,6.20
2022-12-09T02:08:51.520Z,6.17
2022-12-09T02:11:27.179Z,6.13
2022-12-09T02:14:31.700Z,6.02
2022-12-09T02:17:36.073Z,6.05
2022-12-09T02:20:17.341Z,6.01
2022-12-09T02:22:48.123Z,5.95
2022-12-09T02:25:27.782Z,5.87
2022-12-09T02:28:17.132Z,5.83
2022-12-09T02:31:03.957Z,5.82
2022-12-09T02:34:07.977Z,5.79
2022-12-09T02:36:46.580Z,5.67
2022-12-09T02:39:13.411Z,5.57
2022-12-09T02:41:46.886Z,5.50
2022-12-09T02:44:17.233Z,5.47
2022-12-09T02:46:46.472Z,5.42
2022-12-09T02:49:14.718Z,5.40
2022-12-09T02:51:44.228Z,5.38
2022-12-09T02:54:16.446Z,5.37
2022-12-09T02:57:07.262Z,5.37
2022-12-09T02:59:33.966Z,5.39
2022-12-09T03:02:06.817Z,5.37
2022-12-09T03:04:33.836Z,5.36
2022-12-09T03:07:26.768Z,5.33
2022-12-09T03:10:04.684Z,5.28
2022-12-09T03:12:33.678Z,5.25
2022-12-09T03:15:05.915Z,5.18
2022-12-09T03:17:36.999Z,4.96
2022-12-09T03:20:09.114Z,4.89
2022-12-09T03:22:38.725Z,4.76
2022-12-09T03:25:47.053Z,4.70
2022-12-09T03:28:26.796Z,4.74
2022-12-09T03:30:56.270Z,4.78
2022-12-09T03:33:25.152Z,4.89
2022-12-09T03:35:56.179Z,4.99
2022-12-09T03:38:27.083Z,5.08
2022-12-09T03:41:23.719Z,5.09
2022-12-09T03:44:04.760Z,5.20
2022-12-09T03:46:32.180Z,5.24
2022-12-09T03:48:59.764Z,5.28
2022-12-09T03:51:34.705Z,5.27
2022-12-09T03:54:09.901Z,5.27
2022-12-09T03:56:41.753Z,5.30
2022-12-09T03:59:14.423Z,5.28
2022-12-09T04:01:44.533Z,5.37
2022-12-09T04:04:13.880Z,5.41
2022-12-09T04:06:40.755Z,5.52
2022-12-09T04:09:08.344Z,5.63
2022-12-09T04:11:35.591Z,5.61
2022-12-09T04:14:02.515Z,5.62
2022-12-09T04:16:29.545Z,5.58
2022-12-09T04:18:56.903Z,5.56
2022-12-09T04:21:23.985Z,5.56
2022-12-09T04:23:50.876Z,5.61
2022-12-09T04:26:21.204Z,5.59
2022-12-09T04:28:48.714Z,5.62
2022-12-09T04:31:18.161Z,5.50
2022-12-09T04:33:45.812Z,5.46
2022-12-09T04:36:15.315Z,5.47
2022-12-09T04:38:42.958Z,5.44
2022-12-09T04:41:10.409Z,5.40
2022-12-09T04:43:37.196Z,5.41
2022-12-09T04:46:10.481Z,5.11
2022-12-09T04:48:37.554Z,5.02
2022-12-09T04:51:04.457Z,4.96
2022-12-09T04:53:31.128Z,4.94
2022-12-09T04:56:14.838Z,5.08
2022-12-09T04:58:42.338Z,5.03
2022-12-09T05:01:11.355Z,5.01
2022-12-09T05:03:38.906Z,4.97
2022-12-09T05:06:08.172Z,4.82
2022-12-09T05:08:35.843Z,4.89
2022-12-09T05:11:03.484Z,4.91
2022-12-09T05:13:31.619Z,4.84
2022-12-09T05:16:02.889Z,4.82
2022-12-09T05:18:30.276Z,4.70
2022-12-09T05:20:57.398Z,4.69
2022-12-09T05:23:24.370Z,4.74
2022-12-09T05:25:51.827Z,4.83
2022-12-09T05:28:19.585Z,4.92
2022-12-09T05:30:46.609Z,4.93
2022-12-09T05:33:13.793Z,4.92
2022-12-09T05:35:52.465Z,4.89
2022-12-09T05:38:20.287Z,4.79
2022-12-09T05:40:47.265Z,4.85
2022-12-09T05:43:14.450Z,4.93
2022-12-09T05:45:41.587Z,4.93
2022-12-09T05:48:08.526Z,4.94
2022-12-09T05:50:36.620Z,5.01
2022-12-09T05:53:03.876Z,5.08
2022-12-09T05:55:36.588Z,5.11
2022-12-09T05:58:03.405Z,5.14
2022-12-09T06:00:30.353Z,5.17
2022-12-09T06:02:57.156Z,5.23
2022-12-09T06:05:24.508Z,5.25
2022-12-09T06:07:51.533Z,5.25
2022-12-09T06:10:18.970Z,5.24
2022-12-09T06:12:48.470Z,5.28
2022-12-09T06:15:20.428Z,5.24
2022-12-09T06:17:48.872Z,5.27
2022-12-09T06:20:19.407Z,5.29
2022-12-09T06:22:46.346Z,5.23
2022-12-09T06:25:13.457Z,5.30
2022-12-09T06:27:40.620Z,5.28
2022-12-09T06:30:08.347Z,5.31
2022-12-09T06:32:39.051Z,5.37
2022-12-09T06:35:07.619Z,5.38
2022-12-09T06:37:35.078Z,5.41
2022-12-09T06:40:05.400Z,5.53
2022-12-09T06:42:32.548Z,5.45
2022-12-09T06:44:59.439Z,5.28
2022-12-09T06:47:26.509Z,5.25
2022-12-09T06:49:53.448Z,5.29
2022-12-09T06:52:20.929Z,5.36
2022-12-09T06:54:48.131Z,5.37
2022-12-09T06:57:15.031Z,5.35
2022-12-09T06:59:42.200Z,5.29
2022-12-09T07:02:10.227Z,5.21
2022-12-09T07:04:37.756Z,5.18
2022-12-09T07:07:05.540Z,5.13
2022-12-09T07:09:33.173Z,5.17
2022-12-09T07:12:00.474Z,5.08
2022-12-09T07:14:27.519Z,4.98
2022-12-09T07:16:54.543Z,4.94
2022-12-09T07:19:23.277Z,4.90
2022-12-09T07:21:51.621Z,4.89
2022-12-09T07:24:20.167Z,4.86
2022-12-09T07:26:47.680Z,4.74
2022-12-09T07:29:14.744Z,4.73
2022-12-09T07:31:42.205Z,4.73
2022-12-09T07:34:11.232Z,4.75
2022-12-09T07:36:38.718Z,4.72
2022-12-09T07:39:17.809Z,4.74
2022-12-09T07:41:45.415Z,4.78
2022-12-09T07:44:12.766Z,4.84
2022-12-09T07:46:40.166Z,4.91
2022-12-09T07:49:07.584Z,4.97
2022-12-09T07:51:34.970Z,5.04
2022-12-09T07:54:01.832Z,5.08
2022-12-09T07:56:29.313Z,5.17
2022-12-09T07:58:57.374Z,5.24
2022-12-09T08:01:27.686Z,5.30
2022-12-09T08:03:55.428Z,5.38
2022-12-09T08:06:25.940Z,5.44
2022-12-09T08:08:53.230Z,5.50
2022-12-09T08:11:23.675Z,5.54
2022-12-09T08:13:51.753Z,5.55
2022-12-09T08:16:21.377Z,5.55
2022-12-09T08:18:49.606Z,5.52
2022-12-09T08:21:21.250Z,5.52
2022-12-09T08:23:49.406Z,5.53
2022-12-09T08:26:19.929Z,5.59
2022-12-09T08:28:47.767Z,5.71
2022-12-09T08:31:38.802Z,5.69
2022-12-09T08:34:08.017Z,5.72
2022-12-09T08:36:35.106Z,5.82
2022-12-09T08:39:02.282Z,5.90
2022-12-09T08:41:36.318Z,5.89
2022-12-09T08:44:11.439Z,5.95
2022-12-09T08:46:40.977Z,6.02
2022-12-09T08:49:08.472Z,6.17
2022-12-09T08:51:35.799Z,6.25
2022-12-09T08:54:04.266Z,6.30
2022-12-09T08:56:31.391Z,6.46
2022-12-09T08:58:58.179Z,6.62
2022-12-09T09:01:32.305Z,6.66
2022-12-09T09:04:05.416Z,6.77
2022-12-09T09:06:33.225Z,6.82
2022-12-09T09:09:00.292Z,6.92
2022-12-09T09:11:27.830Z,7.00
2022-12-09T09:13:54.749Z,7.00
2022-12-09T09:16:24.157Z,6.90
2022-12-09T09:18:52.554Z,7.13
2022-12-09T09:21:22.669Z,7.28
2022-12-09T09:23:50.379Z,7.30
2022-12-09T09:26:20.210Z,7.54
2022-12-09T09:28:47.326Z,7.59
2022-12-09T09:31:17.648Z,7.74
2022-12-09T09:33:45.253Z,7.83
2022-12-09T09:36:21.825Z,7.89
2022-12-09T09:38:50.768Z,7.93
2022-12-09T09:41:25.534Z,8.00
2022-12-09T09:43:55.248Z,8.06
2022-12-09T09:46:35.008Z,8.00
2022-12-09T09:49:05.963Z,8.11
2022-12-09T09:51:34.498Z,7.97
2022-12-09T09:54:06.653Z,7.90
2022-12-09T09:56:41.108Z,7.94
2022-12-09T09:59:32.856Z,8.00
2022-12-09T10:02:00.346Z,7.92
2022-12-09T10:04:43.443Z,8.02
2022-12-09T10:07:20.095Z,8.00
2022-12-09T10:10:13.525Z,8.22
2022-12-09T10:13:00.597Z,8.37
2022-12-09T10:15:41.911Z,8.54
2022-12-09T10:18:19.298Z,8.55
2022-12-09T10:20:46.922Z,8.88
2022-12-09T10:23:16.364Z,9.36
2022-12-09T10:25:56.779Z,9.61
2022-12-09T10:28:29.989Z,9.95
2022-12-09T10:30:57.346Z,10.35
2022-12-09T10:33:35.362Z,10.43
2022-12-09T10:36:03.658Z,10.54
2022-12-09T10:38:31.701Z,10.43
2022-12-09T10:41:09.825Z,10.05
2022-12-09T10:43:39.599Z,9.38
2022-12-09T10:46:18.064Z,8.91
2022-12-09T10:48:46.426Z,8.33
2022-12-09T10:51:15.789Z,8.02
2022-12-09T10:53:48.688Z,7.39
2022-12-09T10:56:22.709Z,7.12
2022-12-09T10:58:49.575Z,6.93
2022-12-09T11:01:17.413Z,6.65
2022-12-09T11:03:53.643Z,6.06
2022-12-09T11:06:23.697Z,6.11
2022-12-09T11:09:00.124Z,5.70
2022-12-09T11:11:49.605Z,5.92
2022-12-09T11:14:24.906Z,5.95
2022-12-09T11:16:54.477Z,6.17
2022-12-09T11:19:34.287Z,6.81
2022-12-09T11:22:28.367Z,7.96
2022-12-09T11:25:06.141Z,8.42
2022-12-09T11:27:34.879Z,8.48
2022-12-09T11:30:14.345Z,8.28
2022-12-09T11:33:00.849Z,8.15
2022-12-09T11:35:43.717Z,7.75
2022-12-09T11:38:35.715Z,8.40
2022-12-09T11:41:13.117Z,8.42
2022-12-09T11:43:56.386Z,9.29
2022-12-09T11:46:29.294Z,10.26
2022-12-09T11:48:59.364Z,11.70
2022-12-09T11:51:31.024Z,12.63
2022-12-09T11:54:10.827Z,12.61
2022-12-09T11:56:39.941Z,13.41
2022-12-09T11:59:13.356Z,14.20
2022-12-09T12:01:56.289Z,14.19
2022-12-09T12:04:30.882Z,13.69
2022-12-09T12:07:24.444Z,12.84
2022-12-09T12:09:55.114Z,12.28
2022-12-09T12:12:54.533Z,12.14
2022-12-09T12:15:39.439Z,11.42
2022-12-09T12:18:14.507Z,10.92
2022-12-09T12:20:41.043Z,10.11
2022-12-09T12:23:46.349Z,9.10
2022-12-09T12:26:24.881Z,8.54
2022-12-09T12:28:59.088Z,8.42
2022-12-09T12:31:55.740Z,7.98
2022-12-09T12:34:27.306Z,7.90
2022-12-09T12:36:58.728Z,7.65
2022-12-09T12:39:47.091Z,7.65
2022-12-09T12:42:23.100Z,7.45
2022-12-09T12:45:22.053Z,7.56
2022-12-09T12:48:07.536Z,7.57
2022-12-09T12:50:46.864Z,7.22
2022-12-09T12:53:31.522Z,7.22
2022-12-09T12:56:07.365Z,7.22
2022-12-09T12:58:53.012Z,7.11
2022-12-09T13:01:30.516Z,7.11
2022-12-09T13:04:22.693Z,6.80
2022-12-09T13:06:55.177Z,6.88
2022-12-09T13:09:33.335Z,6.75
2022-12-09T13:12:07.303Z,6.75
2022-12-09T13:14:52.204Z,6.70
2022-12-09T13:17:25.348Z,6.40
2022-12-09T13:19:56.072Z,6.82
2022-12-09T13:22:29.707Z,7.00
2022-12-09T13:25:25.790Z,7.14
2022-12-09T13:28:04.012Z,7.31
2022-12-09T13:30:53.850Z,7.06
2022-12-09T13:33:52.802Z,6.94
2022-12-09T13:36:37.818Z,6.96
2022-12-09T13:39:05.284Z,6.98
2022-12-09T13:41:51.824Z,6.97
2022-12-09T13:44:19.424Z,7.01
2022-12-09T13:46:46.133Z,7.10
2022-12-09T13:49:19.936Z,7.16
2022-12-09T13:51:51.529Z,7.07
2022-12-09T13:54:21.072Z,6.82
2022-12-09T13:57:06.880Z,6.93
2022-12-09T13:59:42.532Z,7.09
2022-12-09T14:02:14.625Z,7.18
2022-12-09T14:04:54.184Z,7.25
2022-12-09T14:07:37.016Z,7.19
2022-12-09T14:10:04.084Z,7.32
2022-12-09T14:12:32.540Z,7.21
2022-12-09T14:15:05.289Z,7.10
2022-12-09T14:17:33.764Z,7.17
2022-12-09T14:20:21.321Z,7.09
2022-12-09T14:23:06.427Z,7.03
2022-12-09T14:25:35.963Z,7.07
2022-12-09T14:28:11.526Z,7.10
2022-12-09T14:30:52.180Z,7.03
2022-12-09T14:33:30.803Z,6.88
2022-12-09T14:36:15.692Z,6.83
2022-12-09T14:39:23.087Z,6.67
2022-12-09T14:41:49.305Z,6.75
2022-12-09T14:44:40.570Z,6.75
2022-12-09T14:47:28.171Z,6.65
2022-12-09T14:49:56.066Z,6.67
2022-12-09T14:52:30.672Z,6.66
2022-12-09T14:55:05.033Z,6.62
2022-12-09T14:57:41.458Z,6.68
2022-12-09T15:00:35.489Z,6.59
2022-12-09T15:06:02.740Z,6.27
2022-12-09T15:08:32.088Z,6.24
2022-12-09T15:11:01.690Z,6.25
2022-12-09T15:13:30.716Z,6.21
2022-12-09T15:15:57.482Z,6.21
2022-12-09T15:18:37.595Z,6.22
2022-12-09T15:21:07.868Z,6.16
2022-12-09T15:23:40.177Z,6.07
2022-12-09T15:26:28.905Z,6.01
2022-12-09T15:28:56.788Z,5.93
2022-12-09T15:31:26.823Z,5.94
2022-12-09T15:33:56.298Z,5.82
2022-12-09T15:36:34.371Z,5.84
2022-12-09T15:39:08.419Z,5.82
2022-12-09T15:42:01.652Z,5.79
2022-12-09T15:44:51.692Z,5.82
2022-12-09T15:47:25.981Z,5.82
2022-12-09T15:50:03.731Z,5.83
2022-12-09T15:52:39.089Z,5.88
2022-12-09T15:55:11.824Z,5.83
2022-12-09T15:57:40.029Z,5.83
2022-12-09T16:00:07.501Z,5.78
2022-12-09T16:02:39.411Z,5.76
2022-12-09T16:05:09.418Z,5.74
2022-12-09T16:07:37.072Z,5.73
2022-12-09T16:10:03.611Z,5.71
2022-12-09T16:12:32.502Z,5.69
2022-12-09T16:14:59.496Z,5.64
2022-12-09T16:17:31.904Z,5.65
2022-12-09T16:19:59.052Z,5.63
2022-12-09T16:22:30.185Z,5.59
2022-12-09T16:25:21.858Z,5.52
2022-12-09T16:27:55.780Z,5.52
2022-12-09T16:30:25.944Z,5.52
2022-12-09T16:32:57.021Z,5.49
2022-12-09T16:35:28.332Z,5.49
2022-12-09T16:37:57.713Z,5.44
2022-12-09T16:40:24.273Z,5.42
2022-12-09T16:42:56.481Z,5.42
2022-12-09T16:45:31.888Z,5.41
2022-12-09T16:47:59.647Z,5.41
2022-12-09T16:50:30.363Z,5.38
2022-12-09T16:53:02.440Z,5.38
2022-12-09T16:55:30.930Z,5.34
2022-12-09T16:57:59.209Z,5.36
2022-12-09T17:00:26.179Z,5.38
2022-12-09T17:03:01.557Z,5.36
2022-12-09T17:05:28.441Z,5.34
2022-12-09T17:07:55.665Z,5.33
2022-12-09T17:10:22.590Z,5.35
2022-12-09T17:12:49.250Z,5.37
2022-12-09T17:15:18.561Z,5.37
2022-12-09T17:17:49.096Z,5.37
2022-12-09T17:20:16.347Z,5.39
2022-12-09T17:22:43.125Z,5.39
2022-12-09T17:25:10.390Z,5.38
2022-12-09T17:27:37.547Z,5.38
2022-12-09T17:30:05.195Z,5.34
2022-12-09T17:32:31.806Z,5.31
2022-12-09T17:34:58.681Z,5.30
2022-12-09T17:37:25.346Z,5.30
2022-12-09T17:39:56.838Z,5.25
2022-12-09T17:42:26.698Z,5.21
2022-12-09T17:44:53.286Z,5.15
2022-12-09T17:47:19.937Z,5.08
2022-12-09T17:49:46.767Z,5.04
2022-12-09T17:52:14.143Z,4.99
2022-12-09T17:54:40.782Z,4.97
2022-12-09T17:57:07.409Z,4.94
2022-12-09T17:59:34.082Z,4.89
2022-12-09T18:02:03.381Z,4.90
2022-12-09T18:04:31.356Z,4.89
2022-12-09T18:06:58.101Z,4.90
2022-12-09T18:09:24.858Z,4.91
2022-12-09T18:11:51.877Z,4.94
2022-12-09T18:14:20.418Z,4.98
2022-12-09T18:16:48.906Z,5.02
2022-12-09T18:19:17.460Z,5.04
2022-12-09T18:21:45.032Z,5.06
2022-12-09T18:24:12.674Z,5.07
2022-12-09T18:26:42.039Z,5.08
2022-12-09T18:29:10.488Z,5.07
2022-12-09T18:31:37.376Z,5.09
2022-12-09T18:34:04.116Z,5.11
2022-12-09T18:36:31.064Z,5.13
2022-12-09T18:39:01.534Z,5.21
2022-12-09T18:41:30.806Z,5.30
2022-12-09T18:43:59.597Z,5.35
2022-12-09T18:46:29.381Z,5.37
2022-12-09T18:49:05.025Z,5.42
2022-12-09T18:51:32.699Z,5.40
2022-12-09T18:54:00.903Z,5.40
2022-12-09T18:56:28.601Z,5.35
2022-12-09T18:59:11.528Z,5.33
2022-12-09T19:01:43.758Z,5.28
2022-12-09T19:04:21.731Z,5.31
2022-12-09T19:06:50.699Z,5.37
2022-12-09T19:09:26.583Z,5.38
2022-12-09T19:11:53.467Z,5.39
2022-12-09T19:14:21.783Z,5.36
2022-12-09T19:16:49.189Z,5.36
2022-12-09T19:19:18.474Z,5.36
2022-12-09T19:21:45.939Z,5.36
2022-12-09T19:24:15.840Z,5.33
2022-12-09T19:26:42.975Z,5.27
2022-12-09T19:29:10.646Z,5.23
2022-12-09T19:31:43.045Z,5.20
2022-12-09T19:34:15.996Z,5.19
2022-12-09T19:36:44.500Z,5.22
2022-12-09T19:39:16.426Z,5.24
2022-12-09T19:41:44.586Z,5.27
2022-12-09T19:44:21.618Z,5.33
2022-12-09T19:46:53.900Z,5.35
2022-12-09T19:49:21.839Z,5.35
2022-12-09T19:51:49.594Z,5.37
2022-12-09T19:54:16.725Z,5.40
2022-12-09T19:56:44.320Z,5.45
2022-12-09T19:59:11.908Z,5.45
2022-12-09T20:01:41.986Z,5.45
2022-12-09T20:07:08.601Z,5.47
2022-12-09T20:09:36.850Z,5.50
2022-12-09T20:12:04.189Z,5.54
2022-12-09T20:14:33.234Z,5.56
2022-12-09T20:16:59.888Z,5.58
2022-12-09T20:19:26.525Z,5.60
2022-12-09T20:21:53.576Z,5.62
2022-12-09T20:24:20.381Z,5.62
2022-12-09T20:26:47.010Z,5.69
2022-12-09T20:29:13.723Z,5.73
2022-12-09T20:31:42.551Z,5.75
2022-12-09T20:34:14.952Z,5.72
2022-12-09T20:36:43.553Z,5.75
2022-12-09T20:39:19.380Z,5.76
2022-12-09T20:41:47.805Z,5.72
2022-12-09T20:44:15.916Z,5.74
2022-12-09T20:46:48.426Z,5.72
2022-12-09T20:49:15.123Z,5.69
2022-12-09T20:51:45.064Z,5.68
2022-12-09T20:54:11.936Z,5.59
2022-12-09T20:56:38.803Z,5.55
2022-12-09T20:59:06.643Z,5.54
2022-12-09T21:01:34.795Z,5.58
2022-12-09T21:04:03.238Z,5.60
2022-12-09T21:06:33.352Z,5.62
2022-12-09T21:09:05.279Z,5.67
2022-12-09T21:11:32.488Z,5.71
2022-12-09T21:14:01.457Z,5.82
2022-12-09T21:16:33.630Z,5.84
2022-12-09T21:19:02.467Z,5.78
2022-12-09T21:21:31.878Z,5.82
2022-12-09T21:23:59.709Z,5.85
2022-12-09T21:26:27.497Z,5.86
2022-12-09T21:28:54.374Z,5.84
2022-12-09T21:31:26.463Z,5.78
2022-12-09T21:33:55.206Z,5.78
2022-12-09T21:36:24.896Z,5.80
2022-12-09T21:38:52.593Z,5.82
2022-12-09T21:41:22.188Z,5.79
2022-12-09T21:43:48.898Z,5.75
2022-12-09T21:46:20.887Z,5.76
2022-12-09T21:48:52.020Z,5.79
2022-12-09T21:51:19.963Z,5.67
2022-12-09T21:53:47.577Z,5.76
2022-12-09T21:56:19.923Z,5.73
2022-12-09T21:58:49.023Z,5.79
2022-12-09T22:01:22.087Z,5.80
2022-12-09T22:03:49.785Z,5.83
2022-12-09T22:06:17.642Z,5.81
2022-12-09T22:08:44.619Z,5.85
2022-12-09T22:11:16.652Z,5.87
2022-12-09T22:13:43.770Z,5.88
2022-12-09T22:16:13.276Z,5.91
2022-12-09T22:18:41.736Z,5.89
2022-12-09T22:21:28.026Z,5.88
2022-12-09T22:23:57.147Z,5.85
2022-12-09T22:26:24.227Z,5.91
2022-12-09T22:28:52.499Z,5.91
2022-12-09T22:31:26.477Z,5.89
2022-12-09T22:33:55.634Z,5.90
2022-12-09T22:36:22.971Z,5.86
2022-12-09T22:38:50.254Z,5.85
2022-12-09T22:41:22.168Z,5.85
2022-12-09T22:43:50.113Z,5.89
2022-12-09T22:46:21.402Z,5.88
2022-12-09T22:48:48.553Z,5.88
2022-12-09T22:51:27.751Z,5.88
2022-12-09T22:53:55.871Z,5.91
2022-12-09T22:56:24.347Z,5.89
2022-12-09T22:58:51.635Z,5.88
2022-12-09T23:01:22.053Z,5.91
2022-12-09T23:03:49.071Z,5.91
2022-12-09T23:06:15.728Z,5.94
2022-12-09T23:08:44.127Z,5.94
2022-12-09T23:11:14.791Z,5.95
2022-12-09T23:13:41.716Z,5.99
2022-12-09T23:16:12.299Z,5.96
2022-12-09T23:18:39.603Z,5.95
2022-12-09T23:21:09.401Z,5.92
2022-12-09T23:23:36.461Z,5.94
2022-12-09T23:26:09.589Z,5.99
2022-12-09T23:28:40.850Z,5.99
2022-12-09T23:31:09.972Z,6.01
2022-12-09T23:33:38.669Z,6.03
2022-12-09T23:36:11.711Z,6.03
2022-12-09T23:38:38.470Z,6.04
2022-12-09T23:41:06.016Z,6.05
2022-12-09T23:43:34.468Z,6.10
2022-12-09T23:46:04.638Z,6.13
2022-12-09T23:48:32.068Z,6.16
2022-12-09T23:51:00.101Z,6.15
2022-12-09T23:53:26.882Z,6.19
2022-12-09T23:55:53.550Z,6.22
2022-12-09T23:58:20.174Z,6.24
